Time;durP1;ratioP1;P1;durP2;ratioP2;P2;SDS_P1;SDS_P2;PMS_P1;PMS_P2;Temp;Humidity;BMP_temperature;BMP_pressure;BME280_temperature;BME280_humidity;BME280_pressure;Samples;Min_cycle;Max_cycle;Signal;HPM_P1;HPM_P2
2023/12/15 00:01:59;;;;;;;17.02;6.72;;;4.40;99.90;;;;;;5063744;28;20105;-70
2023/12/15 00:04:24;;;;;;;18.20;7.57;;;4.40;99.90;;;;;;5048173;28;20032;-70
2023/12/15 00:06:50;;;;;;;15.20;6.93;;;4.50;99.90;;;;;;5065317;28;20039;-71
2023/12/15 00:09:16;;;;;;;16.65;7.50;;;4.50;99.90;;;;;;5062679;28;20119;-71
2023/12/15 00:11:41;;;;;;;18.23;7.35;;;4.60;99.90;;;;;;5060972;28;20098;-73
2023/12/15 00:14:07;;;;;;;16.60;7.13;;;4.60;99.90;;;;;;5054177;28;20029;-72
2023/12/15 00:16:32;;;;;;;18.13;7.25;;;4.50;99.90;;;;;;5067501;28;20024;-72
2023/12/15 00:18:58;;;;;;;19.38;7.32;;;4.40;99.90;;;;;;5060634;28;20090;-70
2023/12/15 00:21:24;;;;;;;20.92;8.43;;;4.30;99.90;;;;;;5048776;28;20467;-69
2023/12/15 00:23:49;;;;;;;22.13;7.85;;;4.20;99.90;;;;;;5061632;28;20032;-71
2023/12/15 00:26:15;;;;;;;23.13;8.82;;;4.20;99.90;;;;;;5067463;28;20062;-72
2023/12/15 00:28:41;;;;;;;23.73;8.23;;;4.00;99.90;;;;;;5059336;28;20079;-70
2023/12/15 00:31:06;;;;;;;20.63;7.72;;;3.90;99.90;;;;;;5058788;28;20715;-71
2023/12/15 00:33:32;;;;;;;22.40;8.23;;;3.90;99.90;;;;;;5070393;28;20032;-72
2023/12/15 00:35:59;;;;;;;20.77;8.10;;;3.80;99.90;;;;;;5072327;28;20033;-71
2023/12/15 00:38:25;;;;;;;22.85;8.35;;;3.90;99.90;;;;;;5062113;28;20728;-69
2023/12/15 00:40:50;;;;;;;24.08;7.97;;;3.90;99.90;;;;;;5054129;28;20109;-71
2023/12/15 00:43:16;;;;;;;20.70;7.57;;;3.90;99.90;;;;;;5060448;28;20032;-75
2023/12/15 00:45:42;;;;;;;17.17;6.20;;;3.90;99.90;;;;;;5072113;28;20150;-71
2023/12/15 00:48:08;;;;;;;19.05;6.57;;;3.90;99.90;;;;;;5058261;28;20041;-72
2023/12/15 00:50:34;;;;;;;18.17;6.93;;;3.90;99.90;;;;;;5063269;28;20036;-70
2023/12/15 00:52:59;;;;;;;18.42;6.88;;;3.90;99.90;;;;;;5066155;28;20029;-70
2023/12/15 00:55:25;;;;;;;19.30;6.47;;;3.90;99.90;;;;;;5061839;28;20386;-69
2023/12/15 00:57:51;;;;;;;20.75;7.00;;;4.00;99.90;;;;;;5053718;28;20029;-70
2023/12/15 01:00:17;;;;;;;19.95;7.22;;;4.00;99.90;;;;;;5058920;28;20521;-75
2023/12/15 01:02:43;;;;;;;18.95;6.68;;;4.00;99.90;;;;;;5052246;28;20036;-71
2023/12/15 01:05:09;;;;;;;19.60;7.47;;;4.00;99.90;;;;;;5054136;28;20051;-70
2023/12/15 01:07:35;;;;;;;18.58;6.57;;;4.10;99.90;;;;;;5057697;28;20041;-70
2023/12/15 01:10:01;;;;;;;19.77;7.25;;;4.10;99.90;;;;;;5060342;28;20039;-70
2023/12/15 01:12:26;;;;;;;23.88;7.95;;;4.10;99.90;;;;;;5053947;28;20029;-70
2023/12/15 01:14:52;;;;;;;22.00;7.78;;;4.10;99.90;;;;;;5066387;28;20036;-72
2023/12/15 01:17:18;;;;;;;21.10;7.97;;;4.10;99.90;;;;;;5060506;28;20043;-76
2023/12/15 01:19:43;;;;;;;23.20;7.97;;;4.00;99.90;;;;;;5069627;28;20036;-70
2023/12/15 01:22:09;;;;;;;21.50;7.82;;;3.90;99.90;;;;;;5071082;28;20062;-69
2023/12/15 01:24:34;;;;;;;24.10;8.73;;;3.80;99.90;;;;;;5070343;28;20033;-72
2023/12/15 01:27:00;;;;;;;25.02;8.50;;;3.80;99.90;;;;;;5054872;28;20118;-70
2023/12/15 01:29:25;;;;;;;22.77;8.73;;;3.80;99.90;;;;;;5053585;28;20029;-70
2023/12/15 01:31:51;;;;;;;23.58;8.95;;;3.80;99.90;;;;;;5051498;28;20047;-69
2023/12/15 01:34:17;;;;;;;26.48;9.02;;;3.80;99.90;;;;;;5058053;28;20028;-76
2023/12/15 01:36:42;;;;;;;28.35;9.52;;;3.80;99.90;;;;;;5050825;28;20467;-72
2023/12/15 01:39:08;;;;;;;31.75;10.07;;;3.80;99.90;;;;;;5059337;28;20032;-70
2023/12/15 01:41:33;;;;;;;31.83;10.30;;;3.80;99.90;;;;;;5050091;28;20079;-69
2023/12/15 01:43:59;;;;;;;27.33;10.27;;;3.80;99.90;;;;;;5052374;28;20033;-68
2023/12/15 01:46:25;;;;;;;31.42;9.82;;;3.80;99.90;;;;;;5049335;28;20033;-69
2023/12/15 01:48:51;;;;;;;29.02;10.30;;;3.80;99.90;;;;;;5060634;28;20033;-72
2023/12/15 01:51:17;;;;;;;30.75;10.30;;;3.80;99.90;;;;;;5060247;28;20036;-76
2023/12/15 01:53:45;;;;;;;30.55;10.60;;;3.70;99.90;;;;;;5070400;28;20463;-71
2023/12/15 01:56:11;;;;;;;26.33;9.55;;;3.80;99.90;;;;;;5067465;28;20028;-70
2023/12/15 01:58:37;;;;;;;30.52;9.85;;;3.80;99.90;;;;;;5066812;28;20036;-71
2023/12/15 02:01:04;;;;;;;23.52;9.35;;;3.80;99.90;;;;;;5065691;28;20059;-70
2023/12/15 02:03:30;;;;;;;27.58;9.52;;;3.80;99.90;;;;;;5060637;28;20032;-70
2023/12/15 02:05:56;;;;;;;31.98;9.75;;;3.80;99.90;;;;;;5070849;28;20100;-70
2023/12/15 02:08:22;;;;;;;25.10;10.18;;;3.80;99.90;;;;;;5067689;28;20478;-72
2023/12/15 02:10:47;;;;;;;28.02;10.27;;;3.90;99.90;;;;;;5061353;28;20086;-72
2023/12/15 02:13:13;;;;;;;27.23;11.10;;;3.80;99.90;;;;;;5049714;28;20098;-70
2023/12/15 02:15:39;;;;;;;32.00;11.48;;;3.80;99.90;;;;;;5051162;28;20032;-70
2023/12/15 02:18:04;;;;;;;29.25;10.38;;;3.80;99.90;;;;;;5050302;28;20036;-71
2023/12/15 02:20:30;;;;;;;35.35;12.07;;;3.90;99.90;;;;;;5067999;28;20090;-70
2023/12/15 02:22:59;;;;;;;36.70;13.13;;;3.90;99.90;;;;;;5064402;28;20045;-70
2023/12/15 02:25:25;;;;;;;31.63;12.35;;;3.80;99.90;;;;;;5056803;28;20424;-69
2023/12/15 02:27:50;;;;;;;29.88;10.68;;;3.80;99.90;;;;;;5058131;28;20116;-72
2023/12/15 02:30:16;;;;;;;30.65;9.98;;;3.80;99.90;;;;;;5062085;28;20394;-70
2023/12/15 02:32:42;;;;;;;27.20;9.77;;;3.80;99.90;;;;;;5068014;28;20110;-72
2023/12/15 02:35:08;;;;;;;31.40;11.25;;;3.80;99.90;;;;;;5070495;28;20030;-72
2023/12/15 02:37:33;;;;;;;31.70;11.20;;;3.80;99.90;;;;;;5053430;28;20037;-70
2023/12/15 02:39:59;;;;;;;31.13;10.50;;;3.80;99.90;;;;;;5051358;28;20040;-69
2023/12/15 02:42:25;;;;;;;28.48;10.82;;;3.80;99.90;;;;;;5053375;28;20386;-69
2023/12/15 02:44:50;;;;;;;29.15;11.07;;;3.80;99.90;;;;;;5053609;28;20065;-71
2023/12/15 02:47:16;;;;;;;29.80;10.93;;;3.80;99.90;;;;;;5066646;28;20031;-70
2023/12/15 02:49:41;;;;;;;30.42;10.48;;;3.80;99.90;;;;;;5049177;28;20029;-71
2023/12/15 02:52:08;;;;;;;25.10;10.18;;;3.80;99.90;;;;;;5049632;28;20032;-71
2023/12/15 02:54:34;;;;;;;26.38;10.25;;;3.80;99.90;;;;;;5050406;28;20039;-70
2023/12/15 02:56:59;;;;;;;26.70;10.70;;;3.80;99.90;;;;;;5067646;28;20035;-70
2023/12/15 02:59:25;;;;;;;26.23;9.93;;;3.70;99.90;;;;;;5068713;28;20056;-70
2023/12/15 03:01:51;;;;;;;22.33;9.18;;;3.80;99.90;;;;;;5060265;28;20069;-71
2023/12/15 03:04:16;;;;;;;20.52;7.95;;;3.80;99.90;;;;;;5049848;28;20036;-70
2023/12/15 03:06:42;;;;;;;21.65;7.72;;;3.90;99.90;;;;;;5054872;28;20592;-72
2023/12/15 03:09:08;;;;;;;21.15;8.07;;;3.90;99.90;;;;;;5059464;28;20166;-71
2023/12/15 03:11:33;;;;;;;19.90;7.43;;;3.90;99.90;;;;;;5052797;28;20466;-70
2023/12/15 03:13:59;;;;;;;22.08;9.23;;;3.90;99.90;;;;;;5068843;28;20025;-70
2023/12/15 03:16:24;;;;;;;25.20;9.77;;;3.90;99.90;;;;;;5068634;28;20032;-75
2023/12/15 03:18:50;;;;;;;24.13;10.10;;;3.90;99.90;;;;;;5066253;28;20501;-70
2023/12/15 03:21:16;;;;;;;25.48;9.85;;;3.80;99.90;;;;;;5064393;28;20032;-70
2023/12/15 03:23:42;;;;;;;24.50;9.85;;;3.80;99.90;;;;;;5053177;28;20065;-71
2023/12/15 03:26:07;;;;;;;25.45;8.93;;;3.80;99.90;;;;;;5054428;28;20493;-72
2023/12/15 03:28:33;;;;;;;21.73;8.90;;;3.80;99.90;;;;;;5068312;28;20032;-70
2023/12/15 03:30:58;;;;;;;25.63;10.07;;;3.80;99.90;;;;;;5059666;28;20117;-69
2023/12/15 03:33:28;;;;;;;24.60;9.85;;;3.80;99.90;;;;;;5068666;28;20394;-75
2023/12/15 03:35:53;;;;;;;21.60;8.60;;;3.80;99.90;;;;;;5067188;28;20502;-70
2023/12/15 03:38:20;;;;;;;25.90;9.60;;;3.80;99.90;;;;;;5069256;28;20028;-70
2023/12/15 03:40:46;;;;;;;21.63;8.68;;;3.80;99.90;;;;;;5051546;28;20870;-70
2023/12/15 03:43:11;;;;;;;22.25;8.68;;;3.90;99.90;;;;;;5047822;28;20033;-70
2023/12/15 03:45:37;;;;;;;21.17;8.88;;;3.90;99.90;;;;;;5058065;28;20497;-71
2023/12/15 03:48:03;;;;;;;22.27;8.57;;;3.80;99.90;;;;;;5049287;28;20033;-71
2023/12/15 03:50:29;;;;;;;21.50;7.80;;;3.80;99.90;;;;;;5048797;28;20068;-72
2023/12/15 03:52:55;;;;;;;23.73;8.88;;;3.80;99.90;;;;;;5063643;28;20068;-71
2023/12/15 03:55:21;;;;;;;24.05;9.48;;;3.80;99.90;;;;;;5055356;28;20060;-72
2023/12/15 03:57:47;;;;;;;22.67;9.48;;;3.80;99.90;;;;;;5051822;28;20043;-71
2023/12/15 04:00:13;;;;;;;22.35;8.70;;;3.80;99.90;;;;;;5065504;28;20056;-71
2023/12/15 04:02:39;;;;;;;22.23;8.27;;;3.80;99.90;;;;;;5047995;28;20029;-70
2023/12/15 04:05:05;;;;;;;20.92;7.72;;;3.80;99.90;;;;;;5056787;28;20052;-70
2023/12/15 04:07:30;;;;;;;21.77;8.82;;;3.80;99.90;;;;;;5060493;28;20394;-71
2023/12/15 04:09:56;;;;;;;19.92;7.47;;;3.80;99.90;;;;;;5068079;28;20028;-69
2023/12/15 04:12:22;;;;;;;25.42;8.90;;;3.70;99.90;;;;;;5061875;28;20036;-72
2023/12/15 04:14:47;;;;;;;22.88;8.07;;;3.70;99.90;;;;;;5063046;28;20588;-73
2023/12/15 04:17:13;;;;;;;23.02;8.30;;;3.70;99.90;;;;;;5054815;28;20063;-70
2023/12/15 04:19:39;;;;;;;25.40;9.43;;;3.70;99.90;;;;;;5065089;28;20364;-71
2023/12/15 04:22:05;;;;;;;24.50;8.60;;;3.70;99.90;;;;;;5057178;28;20399;-68
2023/12/15 04:24:30;;;;;;;23.98;8.18;;;3.70;99.90;;;;;;5059841;28;20074;-72
2023/12/15 04:26:56;;;;;;;25.52;9.35;;;3.70;99.90;;;;;;5059907;28;20529;-70
2023/12/15 04:29:22;;;;;;;30.02;10.80;;;3.60;99.90;;;;;;5054415;28;20041;-71
2023/12/15 04:31:47;;;;;;;26.15;10.00;;;3.60;99.90;;;;;;5067443;28;20032;-71
2023/12/15 04:34:13;;;;;;;27.85;9.80;;;3.60;99.90;;;;;;5066660;28;20033;-71
2023/12/15 04:36:39;;;;;;;33.30;10.45;;;3.60;99.90;;;;;;5067127;28;20082;-69
2023/12/15 04:39:05;;;;;;;27.88;9.60;;;3.60;99.90;;;;;;5067002;28;20033;-69
2023/12/15 04:41:31;;;;;;;25.83;9.90;;;3.60;99.90;;;;;;5067747;28;20043;-70
2023/12/15 04:43:57;;;;;;;32.88;10.38;;;3.60;99.90;;;;;;5058048;28;20032;-70
2023/12/15 04:46:29;;;;;;;30.67;10.25;;;3.60;99.90;;;;;;5055000;28;20032;-71
2023/12/15 04:48:58;;;;;;;27.50;9.88;;;3.50;99.90;;;;;;5059660;28;20483;-69
2023/12/15 04:51:23;;;;;;;29.38;10.57;;;3.60;99.90;;;;;;5049163;28;20120;-70
2023/12/15 04:53:50;;;;;;;34.30;11.13;;;3.50;99.90;;;;;;5053799;28;20100;-69
2023/12/15 04:56:16;;;;;;;32.38;9.95;;;3.50;99.90;;;;;;5053797;28;20032;-71
2023/12/15 04:58:43;;;;;;;34.78;11.30;;;3.60;99.90;;;;;;5049605;28;20649;-68
2023/12/15 05:01:13;;;;;;;32.05;11.23;;;3.50;99.90;;;;;;5068293;28;20039;-70
2023/12/15 05:03:42;;;;;;;34.55;11.77;;;3.60;99.90;;;;;;5063639;28;20505;-70
2023/12/15 05:06:22;;;;;;;33.78;13.63;;;3.60;99.90;;;;;;5065439;28;20055;-70
2023/12/15 05:08:49;;;;;;;33.67;12.20;;;3.60;99.90;;;;;;5060142;28;20037;-72
2023/12/15 05:11:15;;;;;;;37.60;13.40;;;3.60;99.90;;;;;;5050045;28;20033;-70
2023/12/15 05:13:41;;;;;;;35.55;13.07;;;3.60;99.90;;;;;;5050822;28;20040;-72
2023/12/15 05:16:07;;;;;;;39.35;13.45;;;3.50;99.90;;;;;;5069044;28;20021;-70
2023/12/15 05:18:33;;;;;;;44.28;13.10;;;3.60;99.90;;;;;;5069550;28;20025;-71
2023/12/15 05:20:59;;;;;;;38.30;13.63;;;3.60;99.90;;;;;;5067851;28;20090;-70
2023/12/15 05:23:25;;;;;;;38.03;13.05;;;3.50;99.90;;;;;;5059842;28;20063;-69
2023/12/15 05:25:51;;;;;;;42.10;13.50;;;3.60;99.90;;;;;;5065971;28;20029;-71
2023/12/15 05:28:16;;;;;;;41.92;13.93;;;3.60;99.90;;;;;;5071362;28;20036;-70
2023/12/15 05:30:42;;;;;;;42.00;13.75;;;3.60;99.90;;;;;;5070501;28;20115;-69
2023/12/15 05:33:07;;;;;;;41.13;13.52;;;3.60;99.90;;;;;;5069404;28;20033;-70
2023/12/15 05:35:33;;;;;;;39.40;14.40;;;3.60;99.90;;;;;;5050505;28;20025;-75
2023/12/15 05:38:00;;;;;;;41.42;13.00;;;3.50;99.90;;;;;;5070465;28;20489;-70
2023/12/15 05:40:25;;;;;;;37.33;12.93;;;3.60;99.90;;;;;;5071336;28;20040;-70
2023/12/15 05:42:51;;;;;;;38.72;13.35;;;3.60;99.90;;;;;;5064503;28;20029;-71
2023/12/15 05:45:16;;;;;;;40.60;13.07;;;3.60;99.90;;;;;;5051330;28;20025;-68
2023/12/15 05:47:42;;;;;;;37.33;13.13;;;3.50;99.90;;;;;;5050836;28;20467;-69
2023/12/15 05:50:08;;;;;;;37.72;13.27;;;3.60;99.90;;;;;;5067371;28;20028;-69
2023/12/15 05:52:34;;;;;;;39.25;12.82;;;3.60;99.90;;;;;;5054971;28;20033;-74
2023/12/15 05:54:59;;;;;;;38.58;12.90;;;3.60;99.90;;;;;;5071174;28;20021;-70
2023/12/15 05:57:25;;;;;;;36.33;12.90;;;3.60;99.90;;;;;;5070998;28;20029;-70
2023/12/15 05:59:51;;;;;;;35.45;12.82;;;3.60;99.90;;;;;;5068653;28;20057;-65
2023/12/15 06:02:17;;;;;;;41.20;13.38;;;3.60;99.90;;;;;;5069730;28;20036;-63
2023/12/15 06:04:43;;;;;;;35.45;12.02;;;3.60;99.90;;;;;;5070102;28;20032;-65
2023/12/15 06:07:09;;;;;;;35.80;12.48;;;3.60;99.90;;;;;;5070432;28;20074;-65
2023/12/15 06:09:36;;;;;;;36.22;11.70;;;3.60;99.90;;;;;;5069144;28;20510;-67
2023/12/15 06:12:02;;;;;;;37.58;12.00;;;3.60;99.90;;;;;;5065948;28;20463;-65
2023/12/15 06:14:28;;;;;;;35.88;11.70;;;3.60;99.90;;;;;;5053630;28;20057;-66
2023/12/15 06:16:54;;;;;;;33.63;12.80;;;3.60;99.90;;;;;;5062803;28;20752;-67
2023/12/15 06:19:19;;;;;;;32.72;12.35;;;3.60;99.90;;;;;;5067910;28;20852;-66
2023/12/15 06:21:45;;;;;;;36.50;12.25;;;3.50;99.90;;;;;;5065478;28;20032;-66
2023/12/15 06:24:10;;;;;;;33.58;12.13;;;3.50;99.90;;;;;;5056202;28;20025;-68
2023/12/15 06:26:36;;;;;;;36.95;12.07;;;3.50;99.90;;;;;;5049418;28;20379;-71
2023/12/15 06:29:02;;;;;;;36.28;12.68;;;3.50;99.90;;;;;;5050074;28;20652;-70
2023/12/15 06:31:29;;;;;;;39.60;13.15;;;3.50;99.90;;;;;;5058711;28;20078;-68
2023/12/15 06:33:55;;;;;;;31.67;12.15;;;3.50;99.90;;;;;;5063396;28;20123;-67
2023/12/15 06:36:20;;;;;;;36.25;12.07;;;3.50;99.90;;;;;;5050531;28;20479;-67
2023/12/15 06:38:46;;;;;;;36.08;12.65;;;3.50;99.90;;;;;;5049909;28;20079;-67
2023/12/15 06:41:12;;;;;;;36.90;12.65;;;3.50;99.90;;;;;;5050259;28;20033;-68
2023/12/15 06:43:45;;;;;;;38.28;12.82;;;3.50;99.90;;;;;;5063029;28;20028;-66
2023/12/15 06:46:11;;;;;;;37.40;12.65;;;3.50;99.90;;;;;;5068071;28;20036;-67
2023/12/15 06:48:37;;;;;;;38.03;12.43;;;3.50;99.90;;;;;;5067723;28;20025;-68
2023/12/15 06:51:04;;;;;;;30.73;11.82;;;3.50;99.90;;;;;;5070110;28;20372;-66
2023/12/15 06:53:30;;;;;;;35.58;12.38;;;3.50;99.90;;;;;;5068622;28;20024;-66
2023/12/15 06:55:55;;;;;;;40.75;12.77;;;3.40;99.90;;;;;;5067698;28;20653;-68
2023/12/15 06:58:21;;;;;;;39.28;12.35;;;3.40;99.90;;;;;;5066616;28;20039;-65
2023/12/15 07:00:47;;;;;;;38.05;12.93;;;3.40;99.90;;;;;;5050399;28;20411;-66
2023/12/15 07:03:12;;;;;;;34.75;12.23;;;3.40;99.90;;;;;;5050159;28;20029;-68
2023/12/15 07:05:38;;;;;;;34.40;12.05;;;3.40;99.90;;;;;;5049272;28;20459;-70
2023/12/15 07:08:04;;;;;;;42.35;17.05;;;3.30;99.90;;;;;;5050227;28;20035;-66
2023/12/15 07:10:30;;;;;;;38.72;13.10;;;3.40;99.90;;;;;;5050706;28;20029;-66
2023/12/15 07:12:56;;;;;;;40.22;12.98;;;3.40;99.90;;;;;;5050212;28;20021;-66
2023/12/15 07:15:22;;;;;;;41.10;14.10;;;3.40;99.90;;;;;;5069725;28;20471;-68
2023/12/15 07:17:48;;;;;;;44.03;13.15;;;3.40;99.90;;;;;;5068692;28;20030;-69
2023/12/15 07:20:14;;;;;;;38.17;12.18;;;3.40;99.90;;;;;;5049630;28;20033;-66
2023/12/15 07:22:40;;;;;;;37.20;12.65;;;3.40;99.90;;;;;;5049933;28;20589;-69
2023/12/15 07:25:06;;;;;;;37.30;12.15;;;3.40;99.90;;;;;;5052403;28;20033;-68
2023/12/15 07:27:31;;;;;;;35.60;11.90;;;3.40;99.90;;;;;;5069475;28;20042;-67
2023/12/15 07:29:57;;;;;;;38.78;12.65;;;3.40;99.90;;;;;;5054400;28;20194;-68
2023/12/15 07:32:23;;;;;;;38.28;11.25;;;3.40;99.90;;;;;;5049442;28;20383;-68
2023/12/15 07:34:48;;;;;;;34.83;12.45;;;3.40;99.90;;;;;;5048597;28;20464;-67
2023/12/15 07:37:14;;;;;;;36.33;11.85;;;3.40;99.90;;;;;;5056296;28;20040;-67
2023/12/15 07:39:39;;;;;;;37.10;12.25;;;3.40;99.90;;;;;;5067176;28;20119;-70
2023/12/15 07:42:05;;;;;;;33.88;11.90;;;3.40;99.90;;;;;;5068417;28;20036;-66
2023/12/15 07:44:30;;;;;;;37.28;11.52;;;3.40;99.90;;;;;;5067606;28;20431;-66
2023/12/15 07:46:56;;;;;;;35.60;11.32;;;3.40;99.90;;;;;;5068247;28;20526;-66
2023/12/15 07:49:23;;;;;;;33.70;11.18;;;3.40;99.90;;;;;;5068948;28;20040;-68
2023/12/15 07:51:50;;;;;;;33.42;10.98;;;3.40;99.90;;;;;;5065352;28;20115;-64
2023/12/15 07:54:16;;;;;;;39.15;11.77;;;3.40;99.90;;;;;;5049030;28;20033;-66
2023/12/15 07:56:42;;;;;;;30.23;10.63;;;3.50;99.90;;;;;;5063138;28;20024;-69
2023/12/15 07:59:08;;;;;;;31.17;10.30;;;3.50;99.90;;;;;;5067974;28;20124;-66
2023/12/15 08:01:33;;;;;;;28.65;10.32;;;3.50;99.90;;;;;;5068954;28;20111;-65
2023/12/15 08:03:59;;;;;;;32.70;10.38;;;3.50;99.90;;;;;;5061468;28;20040;-65
2023/12/15 08:06:25;;;;;;;26.33;9.48;;;3.50;99.90;;;;;;5067595;28;20029;-65
2023/12/15 08:08:52;;;;;;;34.38;9.23;;;3.50;99.90;;;;;;5067153;28;20025;-68
2023/12/15 08:11:18;;;;;;;33.53;10.00;;;3.50;99.90;;;;;;5067870;28;20037;-67
2023/12/15 08:13:44;;;;;;;28.60;10.25;;;3.50;99.90;;;;;;5067954;28;20028;-66
2023/12/15 08:16:10;;;;;;;32.85;11.27;;;3.50;99.90;;;;;;5066610;28;20060;-67
2023/12/15 08:18:36;;;;;;;34.00;10.88;;;3.50;99.90;;;;;;5055727;28;20056;-67
2023/12/15 08:21:02;;;;;;;27.90;10.43;;;3.60;99.90;;;;;;5048118;28;20071;-66
2023/12/15 08:23:27;;;;;;;29.50;10.48;;;3.60;99.90;;;;;;5048656;28;20037;-67
2023/12/15 08:25:53;;;;;;;29.15;10.88;;;3.60;99.90;;;;;;5059781;28;20032;-68
2023/12/15 08:28:20;;;;;;;27.25;10.73;;;3.70;99.90;;;;;;5068126;28;20378;-66
2023/12/15 08:30:49;;;;;;;26.77;10.45;;;3.70;99.90;;;;;;5056444;28;20128;-67
2023/12/15 08:33:16;;;;;;;27.40;11.02;;;3.70;99.90;;;;;;5048533;28;20034;-67
2023/12/15 08:35:41;;;;;;;32.85;11.57;;;3.70;99.90;;;;;;5046618;28;20029;-70
2023/12/15 08:38:07;;;;;;;26.10;10.27;;;3.70;99.90;;;;;;5063256;28;20028;-68
2023/12/15 08:40:33;;;;;;;27.95;10.13;;;3.80;99.90;;;;;;5067845;28;20386;-68
2023/12/15 08:42:59;;;;;;;28.15;9.48;;;3.80;99.90;;;;;;5067658;28;20097;-66
2023/12/15 08:45:24;;;;;;;26.20;10.07;;;3.90;99.90;;;;;;5068664;28;20078;-65
2023/12/15 08:47:50;;;;;;;25.67;10.38;;;3.90;99.90;;;;;;5058749;28;20041;-68
2023/12/15 08:50:16;;;;;;;23.40;9.13;;;3.90;99.90;;;;;;5056390;28;20426;-67
2023/12/15 08:52:43;;;;;;;23.70;9.65;;;3.90;99.90;;;;;;5051603;28;20025;-69
2023/12/15 08:55:09;;;;;;;27.63;10.02;;;4.00;99.90;;;;;;5054324;28;20064;-66
2023/12/15 08:57:35;;;;;;;25.00;9.35;;;4.00;99.90;;;;;;5070058;28;20036;-66
2023/12/15 09:00:00;;;;;;;25.83;10.07;;;4.00;99.90;;;;;;5069087;28;20048;-66
2023/12/15 09:02:26;;;;;;;29.73;10.48;;;4.10;99.90;;;;;;5072174;28;20473;-67
2023/12/15 09:04:52;;;;;;;29.38;10.20;;;4.10;99.90;;;;;;5069932;28;20379;-66
2023/12/15 09:07:18;;;;;;;23.55;9.80;;;4.20;99.90;;;;;;5072070;28;20029;-66
2023/12/15 09:09:44;;;;;;;26.67;10.52;;;4.20;99.90;;;;;;5065814;28;20040;-72
2023/12/15 09:12:10;;;;;;;28.75;9.50;;;4.20;99.90;;;;;;5057966;28;20025;-67
2023/12/15 09:14:36;;;;;;;22.65;9.50;;;4.20;99.90;;;;;;5051274;28;20033;-67
2023/12/15 09:17:02;;;;;;;25.60;9.88;;;4.20;99.90;;;;;;5051219;28;20029;-70
2023/12/15 09:19:28;;;;;;;22.52;9.55;;;4.20;99.90;;;;;;5058031;28;20040;-69
2023/12/15 09:21:54;;;;;;;23.92;10.13;;;4.20;99.90;;;;;;5068310;28;20108;-68
2023/12/15 09:24:20;;;;;;;28.50;11.07;;;4.20;99.90;;;;;;5067400;28;20090;-72
2023/12/15 09:26:45;;;;;;;23.27;9.95;;;4.30;99.90;;;;;;5069041;28;20032;-70
2023/12/15 09:29:12;;;;;;;26.88;9.77;;;4.20;99.90;;;;;;5066679;28;20486;-66
2023/12/15 09:31:38;;;;;;;25.02;10.15;;;4.30;99.90;;;;;;5071189;28;20359;-66
2023/12/15 09:34:04;;;;;;;24.23;10.13;;;4.30;99.90;;;;;;5070539;28;20028;-65
2023/12/15 09:36:30;;;;;;;26.38;10.27;;;4.20;99.90;;;;;;5070266;28;20036;-66
2023/12/15 09:38:56;;;;;;;24.98;9.98;;;4.20;99.90;;;;;;5067453;28;20067;-65
2023/12/15 09:41:22;;;;;;;24.73;10.50;;;4.30;99.90;;;;;;5070884;28;20043;-70
2023/12/15 09:43:49;;;;;;;25.50;10.68;;;4.30;99.90;;;;;;5069323;28;20385;-70
2023/12/15 09:46:15;;;;;;;24.83;10.35;;;4.30;99.90;;;;;;5071201;28;20021;-67
2023/12/15 09:48:41;;;;;;;25.35;11.10;;;4.20;99.90;;;;;;5060262;28;20032;-67
2023/12/15 09:51:14;;;;;;;32.53;11.13;;;4.20;99.90;;;;;;5069324;28;20650;-70
2023/12/15 09:53:40;;;;;;;27.15;11.13;;;4.30;99.90;;;;;;5071100;28;20044;-68
2023/12/15 09:56:06;;;;;;;28.95;11.32;;;4.30;99.90;;;;;;5069553;28;20532;-65
2023/12/15 09:58:32;;;;;;;26.23;10.10;;;4.20;99.90;;;;;;5070970;28;20043;-66
2023/12/15 10:00:57;;;;;;;25.25;10.25;;;4.20;99.90;;;;;;5058197;28;20072;-66
2023/12/15 10:03:23;;;;;;;26.67;10.50;;;4.30;99.90;;;;;;5059306;28;20036;-68
2023/12/15 10:05:49;;;;;;;29.30;11.30;;;4.30;99.90;;;;;;5057001;28;20029;-70
2023/12/15 10:08:15;;;;;;;30.45;11.85;;;4.30;99.90;;;;;;5065431;28;20036;-66
2023/12/15 10:10:41;;;;;;;30.45;11.73;;;4.40;99.90;;;;;;5062464;28;20051;-66
2023/12/15 10:13:07;;;;;;;28.23;10.75;;;4.50;99.90;;;;;;5060327;28;20153;-69
2023/12/15 10:15:32;;;;;;;28.13;11.73;;;4.60;99.90;;;;;;5070554;28;20560;-66
2023/12/15 10:17:58;;;;;;;28.10;11.07;;;4.70;99.90;;;;;;5069473;28;20062;-65
2023/12/15 10:20:24;;;;;;;28.55;10.98;;;4.60;99.90;;;;;;5065254;28;20478;-66
2023/12/15 10:23:07;;;;;;;30.38;10.52;;;4.70;99.90;;;;;;5064943;28;20082;-73
2023/12/15 10:25:33;;;;;;;30.13;11.65;;;4.80;99.90;;;;;;5070191;28;20169;-66
2023/12/15 10:27:59;;;;;;;31.33;11.48;;;4.80;99.90;;;;;;5070136;28;20111;-67
2023/12/15 10:30:25;;;;;;;26.30;10.50;;;4.70;99.90;;;;;;5067421;28;20037;-66
2023/12/15 10:32:53;;;;;;;21.92;10.18;;;4.70;99.90;;;;;;5049783;28;20032;-71
2023/12/15 10:35:21;;;;;;;29.45;10.77;;;4.70;99.90;;;;;;5049377;28;20541;-65
2023/12/15 10:37:47;;;;;;;25.50;10.70;;;4.80;99.90;;;;;;5050291;28;20029;-71
2023/12/15 10:40:13;;;;;;;26.52;11.13;;;4.80;99.90;;;;;;5049919;28;20039;-68
2023/12/15 10:42:40;;;;;;;24.25;10.55;;;4.90;99.90;;;;;;5054997;28;20029;-66
2023/12/15 10:45:08;;;;;;;26.38;10.65;;;4.80;99.90;;;;;;5062842;28;20029;-68
2023/12/15 10:47:34;;;;;;;27.23;11.23;;;4.80;99.90;;;;;;5068776;28;20032;-66
2023/12/15 10:50:01;;;;;;;23.73;10.23;;;4.80;99.90;;;;;;5060855;28;20032;-66
2023/12/15 10:52:27;;;;;;;26.15;10.80;;;4.80;99.90;;;;;;5068419;28;20031;-68
2023/12/15 10:54:54;;;;;;;27.92;11.25;;;4.90;99.90;;;;;;5069024;28;20058;-70
2023/12/15 10:57:20;;;;;;;26.33;11.05;;;4.80;99.90;;;;;;5070183;28;20459;-67
2023/12/15 10:59:48;;;;;;;26.67;11.43;;;4.80;99.90;;;;;;5069179;28;20056;-69
2023/12/15 11:02:17;;;;;;;27.63;10.23;;;4.90;99.90;;;;;;5064299;28;20382;-65
2023/12/15 11:04:43;;;;;;;25.10;10.93;;;4.80;99.90;;;;;;5055349;28;20557;-68
2023/12/15 11:07:09;;;;;;;27.08;10.80;;;4.80;99.90;;;;;;5049153;28;20025;-67
2023/12/15 11:09:36;;;;;;;24.73;10.68;;;4.80;99.90;;;;;;5057636;28;20029;-66
2023/12/15 11:12:30;;;;;;;29.08;11.05;;;4.90;99.90;;;;;;5060666;28;20024;-66
2023/12/15 11:14:59;;;;;;;24.77;10.98;;;5.00;99.90;;;;;;5067756;28;20046;-69
2023/12/15 11:17:29;;;;;;;23.50;9.98;;;5.00;99.90;;;;;;5060137;28;20075;-65
2023/12/15 11:20:06;;;;;;;22.63;9.32;;;4.90;99.90;;;;;;5059496;28;20055;-66
2023/12/15 11:22:52;;;;;;;21.15;9.70;;;4.90;99.90;;;;;;5068777;28;20028;-67
2023/12/15 11:25:24;;;;;;;22.23;9.77;;;4.80;99.90;;;;;;5068777;28;20547;-68
2023/12/15 11:28:15;;;;;;;24.75;9.57;;;4.80;99.90;;;;;;5066546;28;20029;-72
2023/12/15 11:30:54;;;;;;;25.85;9.73;;;4.80;99.90;;;;;;5057083;28;20047;-68
2023/12/15 11:33:47;;;;;;;24.00;9.80;;;4.80;99.90;;;;;;5069102;28;20028;-68
2023/12/15 11:36:13;;;;;;;25.58;9.98;;;4.90;99.90;;;;;;5055553;28;20569;-67
2023/12/15 11:38:40;;;;;;;26.17;10.88;;;5.00;99.90;;;;;;5069064;28;20417;-66
2023/12/15 11:41:07;;;;;;;28.55;11.90;;;4.90;99.90;;;;;;5068399;28;20028;-67
2023/12/15 11:43:36;;;;;;;26.63;11.35;;;5.00;99.90;;;;;;5066957;28;20103;-70
2023/12/15 11:46:05;;;;;;;24.38;9.35;;;5.00;99.90;;;;;;5067190;28;20040;-67
2023/12/15 11:48:33;;;;;;;26.13;11.48;;;5.00;99.90;;;;;;5068847;28;20035;-69
2023/12/15 11:51:00;;;;;;;25.92;10.50;;;5.10;99.90;;;;;;5066894;28;20390;-67
2023/12/15 11:53:25;;;;;;;27.25;10.82;;;5.10;99.90;;;;;;5063315;28;20039;-68
2023/12/15 11:55:52;;;;;;;25.52;10.75;;;5.10;99.90;;;;;;5049051;28;20025;-72
2023/12/15 11:58:18;;;;;;;25.00;10.13;;;5.20;99.90;;;;;;5046945;28;20478;-69
2023/12/15 12:00:44;;;;;;;28.13;11.45;;;5.10;99.90;;;;;;5052402;28;20049;-66
2023/12/15 12:03:19;;;;;;;22.73;10.45;;;5.20;99.90;;;;;;5048374;28;20057;-67
2023/12/15 12:05:45;;;;;;;23.50;10.30;;;5.20;99.90;;;;;;5048893;28;20451;-65
2023/12/15 12:08:12;;;;;;;24.50;10.80;;;5.20;99.90;;;;;;5048071;28;20021;-67
2023/12/15 12:10:42;;;;;;;26.27;11.13;;;5.30;99.90;;;;;;5056913;28;20033;-67
2023/12/15 12:13:09;;;;;;;23.10;10.23;;;5.40;99.90;;;;;;5048704;28;20029;-67
2023/12/15 12:16:08;;;;;;;27.40;11.35;;;5.40;99.90;;;;;;5051982;28;20029;-66
2023/12/15 12:18:34;;;;;;;27.75;11.27;;;5.50;99.90;;;;;;5027018;28;20053;-66
2023/12/15 12:21:05;;;;;;;22.73;9.95;;;5.50;99.90;;;;;;5064958;28;20048;-66
2023/12/15 12:23:31;;;;;;;28.20;11.65;;;5.50;99.90;;;;;;5066736;28;20071;-69
2023/12/15 12:25:58;;;;;;;21.70;9.77;;;5.60;99.90;;;;;;5066498;28;20056;-72
2023/12/15 12:28:39;;;;;;;28.42;10.50;;;5.60;99.90;;;;;;5068415;28;20060;-66
2023/12/15 12:31:04;;;;;;;21.33;9.43;;;5.60;99.90;;;;;;5063524;28;20037;-66
2023/12/15 12:33:30;;;;;;;24.15;9.60;;;5.60;99.90;;;;;;5067971;28;20032;-67
2023/12/15 12:35:56;;;;;;;20.73;9.30;;;5.60;99.90;;;;;;5050169;28;20036;-71
2023/12/15 12:38:22;;;;;;;21.63;8.98;;;5.40;99.90;;;;;;5051174;28;20029;-69